sensor_id;sensor_type;location;lat;lon;timestamp;P1;durP1;ratioP1;P2;durP2;ratioP2
3795;SDS011;1913;50.660;7.834;2022-09-17T00:00:20;32.20;;;14.47;;
3795;SDS011;1913;50.660;7.834;2022-09-17T00:02:50;25.63;;;14.60;;
3795;SDS011;1913;50.660;7.834;2022-09-17T00:05:20;32.33;;;14.10;;
3795;SDS011;1913;50.660;7.834;2022-09-17T00:07:51;25.60;;;14.80;;
3795;SDS011;1913;50.660;7.834;2022-09-17T00:10:18;25.70;;;14.00;;
3795;SDS011;1913;50.660;7.834;2022-09-17T00:12:44;37.60;;;14.20;;
3795;SDS011;1913;50.660;7.834;2022-09-17T00:15:10;22.93;;;14.47;;
3795;SDS011;1913;50.660;7.834;2022-09-17T00:17:36;24.57;;;13.10;;
3795;SDS011;1913;50.660;7.834;2022-09-17T00:20:02;22.90;;;13.60;;
3795;SDS011;1913;50.660;7.834;2022-09-17T00:22:29;26.77;;;14.30;;
3795;SDS011;1913;50.660;7.834;2022-09-17T00:24:54;24.30;;;14.47;;
3795;SDS011;1913;50.660;7.834;2022-09-17T00:27:20;28.10;;;14.00;;
3795;SDS011;1913;50.660;7.834;2022-09-17T00:29:46;23.17;;;14.70;;
3795;SDS011;1913;50.660;7.834;2022-09-17T00:32:12;29.23;;;14.40;;
3795;SDS011;1913;50.660;7.834;2022-09-17T00:34:38;29.57;;;15.03;;
3795;SDS011;1913;50.660;7.834;2022-09-17T00:37:03;23.47;;;15.17;;
3795;SDS011;1913;50.660;7.834;2022-09-17T00:39:28;34.30;;;16.10;;
3795;SDS011;1913;50.660;7.834;2022-09-17T00:41:54;28.57;;;16.40;;
3795;SDS011;1913;50.660;7.834;2022-09-17T00:49:44;33.03;;;17.60;;
3795;SDS011;1913;50.660;7.834;2022-09-17T00:52:11;33.43;;;18.70;;
3795;SDS011;1913;50.660;7.834;2022-09-17T00:54:43;39.80;;;18.67;;
3795;SDS011;1913;50.660;7.834;2022-09-17T00:57:10;38.40;;;20.00;;
3795;SDS011;1913;50.660;7.834;2022-09-17T00:59:36;31.83;;;19.60;;
3795;SDS011;1913;50.660;7.834;2022-09-17T01:02:01;33.57;;;18.67;;
3795;SDS011;1913;50.660;7.834;2022-09-17T01:04:28;32.47;;;18.57;;
3795;SDS011;1913;50.660;7.834;2022-09-17T01:09:56;27.93;;;18.23;;
3795;SDS011;1913;50.660;7.834;2022-09-17T01:15:17;22.80;;;17.13;;
3795;SDS011;1913;50.660;7.834;2022-09-17T01:34:09;38.47;;;21.93;;
3795;SDS011;1913;50.660;7.834;2022-09-17T01:36:44;36.00;;;20.67;;
3795;SDS011;1913;50.660;7.834;2022-09-17T01:42:16;42.50;;;23.13;;
3795;SDS011;1913;50.660;7.834;2022-09-17T01:44:51;33.53;;;22.47;;
3795;SDS011;1913;50.660;7.834;2022-09-17T01:50:28;29.87;;;22.17;;
3795;SDS011;1913;50.660;7.834;2022-09-17T01:52:57;46.93;;;25.50;;
3795;SDS011;1913;50.660;7.834;2022-09-17T01:55:25;44.90;;;25.57;;
3795;SDS011;1913;50.660;7.834;2022-09-17T02:00:27;39.53;;;23.73;;
3795;SDS011;1913;50.660;7.834;2022-09-17T02:06:09;36.90;;;24.23;;
3795;SDS011;1913;50.660;7.834;2022-09-17T02:08:28;40.63;;;24.40;;
3795;SDS011;1913;50.660;7.834;2022-09-17T02:11:01;37.70;;;23.77;;
3795;SDS011;1913;50.660;7.834;2022-09-17T02:16:18;51.40;;;26.20;;
3795;SDS011;1913;50.660;7.834;2022-09-17T02:19:04;38.80;;;24.20;;
3795;SDS011;1913;50.660;7.834;2022-09-17T02:21:46;37.37;;;23.80;;
3795;SDS011;1913;50.660;7.834;2022-09-17T02:24:26;37.43;;;22.50;;
3795;SDS011;1913;50.660;7.834;2022-09-17T02:27:05;38.90;;;22.67;;
3795;SDS011;1913;50.660;7.834;2022-09-17T02:29:35;34.40;;;23.00;;
3795;SDS011;1913;50.660;7.834;2022-09-17T02:32:06;41.60;;;25.17;;
3795;SDS011;1913;50.660;7.834;2022-09-17T02:34:32;44.40;;;26.60;;
3795;SDS011;1913;50.660;7.834;2022-09-17T02:36:58;46.57;;;26.40;;
3795;SDS011;1913;50.660;7.834;2022-09-17T02:39:24;42.57;;;25.67;;
3795;SDS011;1913;50.660;7.834;2022-09-17T02:42:00;41.03;;;25.43;;
3795;SDS011;1913;50.660;7.834;2022-09-17T02:44:50;34.77;;;22.23;;
3795;SDS011;1913;50.660;7.834;2022-09-17T02:50:29;39.60;;;19.70;;
3795;SDS011;1913;50.660;7.834;2022-09-17T02:57:04;24.83;;;17.80;;
3795;SDS011;1913;50.660;7.834;2022-09-17T03:02:39;33.70;;;19.17;;
3795;SDS011;1913;50.660;7.834;2022-09-17T03:05:11;21.93;;;14.00;;
3795;SDS011;1913;50.660;7.834;2022-09-17T03:07:38;23.93;;;12.63;;
3795;SDS011;1913;50.660;7.834;2022-09-17T03:10:04;19.40;;;12.90;;
3795;SDS011;1913;50.660;7.834;2022-09-17T03:12:31;21.97;;;13.30;;
3795;SDS011;1913;50.660;7.834;2022-09-17T03:14:56;30.63;;;14.07;;
3795;SDS011;1913;50.660;7.834;2022-09-17T03:17:22;21.00;;;14.00;;
3795;SDS011;1913;50.660;7.834;2022-09-17T03:19:47;20.07;;;13.57;;
3795;SDS011;1913;50.660;7.834;2022-09-17T03:22:12;24.60;;;13.87;;
3795;SDS011;1913;50.660;7.834;2022-09-17T03:24:38;24.13;;;13.57;;
3795;SDS011;1913;50.660;7.834;2022-09-17T03:27:03;21.23;;;11.90;;
3795;SDS011;1913;50.660;7.834;2022-09-17T03:29:29;19.27;;;10.60;;
3795;SDS011;1913;50.660;7.834;2022-09-17T03:31:54;22.60;;;12.47;;
3795;SDS011;1913;50.660;7.834;2022-09-17T03:34:20;22.10;;;12.03;;
3795;SDS011;1913;50.660;7.834;2022-09-17T03:36:45;23.10;;;13.80;;
3795;SDS011;1913;50.660;7.834;2022-09-17T03:39:11;27.23;;;15.07;;
3795;SDS011;1913;50.660;7.834;2022-09-17T03:41:37;30.33;;;15.80;;
3795;SDS011;1913;50.660;7.834;2022-09-17T03:44:02;33.50;;;16.60;;
3795;SDS011;1913;50.660;7.834;2022-09-17T03:46:28;38.53;;;18.10;;
3795;SDS011;1913;50.660;7.834;2022-09-17T03:48:53;34.37;;;18.30;;
3795;SDS011;1913;50.660;7.834;2022-09-17T03:51:19;40.57;;;19.37;;
3795;SDS011;1913;50.660;7.834;2022-09-17T03:53:44;41.50;;;20.30;;
3795;SDS011;1913;50.660;7.834;2022-09-17T03:56:09;55.17;;;21.40;;
3795;SDS011;1913;50.660;7.834;2022-09-17T03:58:35;43.80;;;21.27;;
3795;SDS011;1913;50.660;7.834;2022-09-17T04:01:00;51.87;;;22.07;;
3795;SDS011;1913;50.660;7.834;2022-09-17T04:03:27;52.03;;;23.33;;
3795;SDS011;1913;50.660;7.834;2022-09-17T04:05:53;48.87;;;21.30;;
3795;SDS011;1913;50.660;7.834;2022-09-17T04:08:19;58.13;;;24.80;;
3795;SDS011;1913;50.660;7.834;2022-09-17T04:10:45;61.53;;;24.20;;
3795;SDS011;1913;50.660;7.834;2022-09-17T04:13:12;56.20;;;24.97;;
3795;SDS011;1913;50.660;7.834;2022-09-17T04:15:38;53.13;;;24.77;;
3795;SDS011;1913;50.660;7.834;2022-09-17T04:18:04;53.73;;;22.23;;
3795;SDS011;1913;50.660;7.834;2022-09-17T04:20:29;43.30;;;23.63;;
3795;SDS011;1913;50.660;7.834;2022-09-17T04:22:55;48.67;;;24.10;;
3795;SDS011;1913;50.660;7.834;2022-09-17T04:25:20;55.43;;;23.63;;
3795;SDS011;1913;50.660;7.834;2022-09-17T04:27:46;44.57;;;23.30;;
3795;SDS011;1913;50.660;7.834;2022-09-17T04:30:12;61.13;;;23.30;;
3795;SDS011;1913;50.660;7.834;2022-09-17T04:32:37;58.60;;;25.47;;
3795;SDS011;1913;50.660;7.834;2022-09-17T04:35:03;52.40;;;25.30;;
3795;SDS011;1913;50.660;7.834;2022-09-17T04:37:28;58.43;;;25.27;;
3795;SDS011;1913;50.660;7.834;2022-09-17T04:39:54;55.13;;;23.97;;
3795;SDS011;1913;50.660;7.834;2022-09-17T04:42:19;55.70;;;24.30;;
3795;SDS011;1913;50.660;7.834;2022-09-17T04:44:45;50.70;;;23.10;;
3795;SDS011;1913;50.660;7.834;2022-09-17T04:47:10;53.13;;;23.57;;
3795;SDS011;1913;50.660;7.834;2022-09-17T04:49:36;46.13;;;22.17;;
3795;SDS011;1913;50.660;7.834;2022-09-17T04:52:01;48.23;;;22.27;;
3795;SDS011;1913;50.660;7.834;2022-09-17T04:54:26;51.07;;;23.50;;
3795;SDS011;1913;50.660;7.834;2022-09-17T04:56:52;54.07;;;23.27;;
3795;SDS011;1913;50.660;7.834;2022-09-17T04:59:17;58.93;;;22.37;;
3795;SDS011;1913;50.660;7.834;2022-09-17T05:01:43;46.33;;;20.20;;
3795;SDS011;1913;50.660;7.834;2022-09-17T05:04:09;45.60;;;21.27;;
3795;SDS011;1913;50.660;7.834;2022-09-17T05:06:35;42.03;;;19.87;;
3795;SDS011;1913;50.660;7.834;2022-09-17T05:09:00;39.57;;;19.30;;
3795;SDS011;1913;50.660;7.834;2022-09-17T05:11:26;37.23;;;19.17;;
3795;SDS011;1913;50.660;7.834;2022-09-17T05:13:52;44.73;;;18.57;;
3795;SDS011;1913;50.660;7.834;2022-09-17T05:16:18;52.37;;;20.90;;
3795;SDS011;1913;50.660;7.834;2022-09-17T05:18:44;53.13;;;21.13;;
3795;SDS011;1913;50.660;7.834;2022-09-17T05:21:10;45.83;;;21.37;;
3795;SDS011;1913;50.660;7.834;2022-09-17T05:23:35;46.70;;;21.30;;
3795;SDS011;1913;50.660;7.834;2022-09-17T05:26:01;44.40;;;20.50;;
3795;SDS011;1913;50.660;7.834;2022-09-17T05:28:26;43.70;;;21.07;;
3795;SDS011;1913;50.660;7.834;2022-09-17T05:30:52;41.90;;;18.80;;
3795;SDS011;1913;50.660;7.834;2022-09-17T05:33:18;37.03;;;18.40;;
3795;SDS011;1913;50.660;7.834;2022-09-17T05:35:44;44.57;;;20.70;;
3795;SDS011;1913;50.660;7.834;2022-09-17T05:38:10;47.40;;;21.30;;
3795;SDS011;1913;50.660;7.834;2022-09-17T05:40:35;47.33;;;21.03;;
3795;SDS011;1913;50.660;7.834;2022-09-17T05:43:04;46.40;;;20.10;;
3795;SDS011;1913;50.660;7.834;2022-09-17T05:45:31;42.47;;;19.63;;
3795;SDS011;1913;50.660;7.834;2022-09-17T05:47:58;54.53;;;21.40;;
3795;SDS011;1913;50.660;7.834;2022-09-17T05:50:25;40.40;;;19.93;;
3795;SDS011;1913;50.660;7.834;2022-09-17T05:52:52;44.70;;;19.27;;
3795;SDS011;1913;50.660;7.834;2022-09-17T05:55:18;38.10;;;19.37;;
3795;SDS011;1913;50.660;7.834;2022-09-17T05:57:46;49.57;;;19.27;;
3795;SDS011;1913;50.660;7.834;2022-09-17T06:00:12;43.13;;;19.33;;
3795;SDS011;1913;50.660;7.834;2022-09-17T06:02:38;37.43;;;20.00;;
3795;SDS011;1913;50.660;7.834;2022-09-17T06:05:04;29.90;;;17.37;;
3795;SDS011;1913;50.660;7.834;2022-09-17T06:07:29;33.33;;;17.50;;
3795;SDS011;1913;50.660;7.834;2022-09-17T06:09:55;38.73;;;18.80;;
3795;SDS011;1913;50.660;7.834;2022-09-17T06:12:21;39.87;;;17.90;;
3795;SDS011;1913;50.660;7.834;2022-09-17T06:14:47;36.80;;;22.17;;
3795;SDS011;1913;50.660;7.834;2022-09-17T06:17:12;34.37;;;17.53;;
3795;SDS011;1913;50.660;7.834;2022-09-17T06:19:38;37.80;;;16.40;;
3795;SDS011;1913;50.660;7.834;2022-09-17T06:22:03;34.87;;;16.07;;
3795;SDS011;1913;50.660;7.834;2022-09-17T06:24:30;34.93;;;15.70;;
3795;SDS011;1913;50.660;7.834;2022-09-17T06:26:57;29.77;;;14.70;;
3795;SDS011;1913;50.660;7.834;2022-09-17T06:29:22;35.60;;;15.87;;
3795;SDS011;1913;50.660;7.834;2022-09-17T06:31:48;37.27;;;14.90;;
3795;SDS011;1913;50.660;7.834;2022-09-17T06:34:14;28.87;;;14.53;;
3795;SDS011;1913;50.660;7.834;2022-09-17T06:36:40;36.63;;;14.90;;
3795;SDS011;1913;50.660;7.834;2022-09-17T06:39:05;35.83;;;14.77;;
3795;SDS011;1913;50.660;7.834;2022-09-17T06:41:31;26.40;;;12.80;;
3795;SDS011;1913;50.660;7.834;2022-09-17T06:43:57;26.60;;;12.43;;
3795;SDS011;1913;50.660;7.834;2022-09-17T06:46:23;23.90;;;12.33;;
3795;SDS011;1913;50.660;7.834;2022-09-17T06:48:48;22.70;;;12.63;;
3795;SDS011;1913;50.660;7.834;2022-09-17T06:51:13;23.53;;;11.80;;
3795;SDS011;1913;50.660;7.834;2022-09-17T06:53:39;30.27;;;13.63;;
3795;SDS011;1913;50.660;7.834;2022-09-17T06:56:05;26.47;;;12.37;;
3795;SDS011;1913;50.660;7.834;2022-09-17T06:58:33;24.47;;;11.70;;
3795;SDS011;1913;50.660;7.834;2022-09-17T07:01:01;28.30;;;12.50;;
3795;SDS011;1913;50.660;7.834;2022-09-17T07:03:28;34.23;;;11.20;;
3795;SDS011;1913;50.660;7.834;2022-09-17T07:05:54;20.93;;;11.30;;
3795;SDS011;1913;50.660;7.834;2022-09-17T07:08:20;26.90;;;13.40;;
3795;SDS011;1913;50.660;7.834;2022-09-17T07:10:45;26.33;;;11.13;;
3795;SDS011;1913;50.660;7.834;2022-09-17T07:13:11;20.30;;;11.73;;
3795;SDS011;1913;50.660;7.834;2022-09-17T07:15:36;23.97;;;11.70;;
3795;SDS011;1913;50.660;7.834;2022-09-17T07:18:08;27.23;;;11.90;;
3795;SDS011;1913;50.660;7.834;2022-09-17T07:20:35;32.00;;;12.90;;
3795;SDS011;1913;50.660;7.834;2022-09-17T07:23:04;28.90;;;13.53;;
3795;SDS011;1913;50.660;7.834;2022-09-17T07:25:29;33.27;;;15.13;;
3795;SDS011;1913;50.660;7.834;2022-09-17T07:27:55;25.13;;;12.80;;
3795;SDS011;1913;50.660;7.834;2022-09-17T07:30:21;26.10;;;12.50;;
3795;SDS011;1913;50.660;7.834;2022-09-17T07:32:46;22.17;;;11.10;;
3795;SDS011;1913;50.660;7.834;2022-09-17T07:35:12;26.23;;;12.40;;
3795;SDS011;1913;50.660;7.834;2022-09-17T07:37:38;21.57;;;10.80;;
3795;SDS011;1913;50.660;7.834;2022-09-17T07:40:04;22.17;;;10.30;;
3795;SDS011;1913;50.660;7.834;2022-09-17T07:42:31;20.00;;;11.13;;
3795;SDS011;1913;50.660;7.834;2022-09-17T07:44:57;20.70;;;10.30;;
3795;SDS011;1913;50.660;7.834;2022-09-17T07:47:22;19.77;;;9.90;;
3795;SDS011;1913;50.660;7.834;2022-09-17T07:49:48;15.37;;;9.00;;
3795;SDS011;1913;50.660;7.834;2022-09-17T07:52:13;17.93;;;9.63;;
3795;SDS011;1913;50.660;7.834;2022-09-17T07:54:38;14.40;;;8.13;;
3795;SDS011;1913;50.660;7.834;2022-09-17T07:57:04;14.70;;;8.70;;
3795;SDS011;1913;50.660;7.834;2022-09-17T07:59:29;19.60;;;8.70;;
3795;SDS011;1913;50.660;7.834;2022-09-17T08:01:55;16.70;;;7.70;;
3795;SDS011;1913;50.660;7.834;2022-09-17T08:04:20;17.93;;;8.83;;
3795;SDS011;1913;50.660;7.834;2022-09-17T08:06:46;17.70;;;8.00;;
3795;SDS011;1913;50.660;7.834;2022-09-17T08:09:15;14.77;;;7.50;;
3795;SDS011;1913;50.660;7.834;2022-09-17T08:11:42;15.17;;;9.43;;
3795;SDS011;1913;50.660;7.834;2022-09-17T08:14:11;15.43;;;7.53;;
3795;SDS011;1913;50.660;7.834;2022-09-17T08:19:33;13.00;;;7.30;;
3795;SDS011;1913;50.660;7.834;2022-09-17T08:21:58;15.93;;;7.50;;
3795;SDS011;1913;50.660;7.834;2022-09-17T08:24:24;13.30;;;6.73;;
3795;SDS011;1913;50.660;7.834;2022-09-17T08:26:49;13.93;;;6.30;;
3795;SDS011;1913;50.660;7.834;2022-09-17T08:29:15;12.87;;;5.07;;
3795;SDS011;1913;50.660;7.834;2022-09-17T08:31:41;15.63;;;6.33;;
3795;SDS011;1913;50.660;7.834;2022-09-17T08:34:10;15.13;;;5.90;;
3795;SDS011;1913;50.660;7.834;2022-09-17T08:36:36;17.13;;;6.47;;
3795;SDS011;1913;50.660;7.834;2022-09-17T08:39:01;18.30;;;6.20;;
3795;SDS011;1913;50.660;7.834;2022-09-17T08:44:23;18.60;;;6.90;;
3795;SDS011;1913;50.660;7.834;2022-09-17T08:47:12;15.50;;;6.53;;
3795;SDS011;1913;50.660;7.834;2022-09-17T08:49:58;11.17;;;6.10;;
3795;SDS011;1913;50.660;7.834;2022-09-17T09:06:15;18.37;;;4.50;;
3795;SDS011;1913;50.660;7.834;2022-09-17T09:08:47;17.20;;;3.93;;
3795;SDS011;1913;50.660;7.834;2022-09-17T09:11:22;8.80;;;3.20;;
3795;SDS011;1913;50.660;7.834;2022-09-17T09:13:57;20.13;;;6.97;;
3795;SDS011;1913;50.660;7.834;2022-09-17T09:16:42;15.93;;;4.07;;
3795;SDS011;1913;50.660;7.834;2022-09-17T09:21:46;8.53;;;3.50;;
3795;SDS011;1913;50.660;7.834;2022-09-17T09:24:24;11.37;;;3.50;;
3795;SDS011;1913;50.660;7.834;2022-09-17T09:26:59;12.33;;;3.80;;
3795;SDS011;1913;50.660;7.834;2022-09-17T09:30:04;16.23;;;3.80;;
3795;SDS011;1913;50.660;7.834;2022-09-17T09:35:26;12.87;;;3.80;;
3795;SDS011;1913;50.660;7.834;2022-09-17T09:43:46;9.20;;;4.57;;
3795;SDS011;1913;50.660;7.834;2022-09-17T09:52:32;13.57;;;3.30;;
3795;SDS011;1913;50.660;7.834;2022-09-17T09:57:14;16.20;;;3.17;;
3795;SDS011;1913;50.660;7.834;2022-09-17T09:59:43;8.60;;;2.60;;
3795;SDS011;1913;50.660;7.834;2022-09-17T10:02:08;10.70;;;2.87;;
3795;SDS011;1913;50.660;7.834;2022-09-17T10:04:34;14.70;;;3.03;;
3795;SDS011;1913;50.660;7.834;2022-09-17T10:09:27;12.20;;;2.73;;
3795;SDS011;1913;50.660;7.834;2022-09-17T10:14:38;8.37;;;2.20;;
3795;SDS011;1913;50.660;7.834;2022-09-17T10:17:21;10.07;;;2.63;;
3795;SDS011;1913;50.660;7.834;2022-09-17T10:24:56;8.60;;;2.63;;
3795;SDS011;1913;50.660;7.834;2022-09-17T10:27:24;13.33;;;2.63;;
3795;SDS011;1913;50.660;7.834;2022-09-17T10:32:32;12.40;;;2.67;;
3795;SDS011;1913;50.660;7.834;2022-09-17T10:37:34;9.63;;;3.27;;
3795;SDS011;1913;50.660;7.834;2022-09-17T10:40:25;6.93;;;2.30;;
3795;SDS011;1913;50.660;7.834;2022-09-17T10:43:14;5.73;;;2.00;;
3795;SDS011;1913;50.660;7.834;2022-09-17T10:45:43;7.23;;;2.00;;
3795;SDS011;1913;50.660;7.834;2022-09-17T10:48:18;9.10;;;2.80;;
3795;SDS011;1913;50.660;7.834;2022-09-17T10:50:49;5.20;;;1.80;;
3795;SDS011;1913;50.660;7.834;2022-09-17T10:53:17;11.20;;;2.00;;
3795;SDS011;1913;50.660;7.834;2022-09-17T10:55:56;6.00;;;1.77;;
3795;SDS011;1913;50.660;7.834;2022-09-17T11:22:57;10.07;;;2.30;;
3795;SDS011;1913;50.660;7.834;2022-09-17T11:28:27;4.10;;;1.57;;
3795;SDS011;1913;50.660;7.834;2022-09-17T11:36:21;8.20;;;2.43;;
3795;SDS011;1913;50.660;7.834;2022-09-17T11:38:52;11.43;;;2.30;;
3795;SDS011;1913;50.660;7.834;2022-09-17T11:41:32;7.30;;;2.07;;
3795;SDS011;1913;50.660;7.834;2022-09-17T11:44:12;7.23;;;2.23;;
3795;SDS011;1913;50.660;7.834;2022-09-17T11:46:48;6.30;;;1.80;;
3795;SDS011;1913;50.660;7.834;2022-09-17T11:52:05;10.77;;;1.90;;
3795;SDS011;1913;50.660;7.834;2022-09-17T11:54:44;6.30;;;1.80;;
3795;SDS011;1913;50.660;7.834;2022-09-17T11:57:21;5.50;;;1.50;;
3795;SDS011;1913;50.660;7.834;2022-09-17T12:05:14;3.93;;;1.40;;
3795;SDS011;1913;50.660;7.834;2022-09-17T12:07:53;9.80;;;1.87;;
3795;SDS011;1913;50.660;7.834;2022-09-17T12:15:34;5.40;;;1.63;;
3795;SDS011;1913;50.660;7.834;2022-09-17T12:21:03;5.63;;;1.90;;
3795;SDS011;1913;50.660;7.834;2022-09-17T12:23:34;4.20;;;1.53;;
3795;SDS011;1913;50.660;7.834;2022-09-17T12:26:16;9.00;;;1.90;;
3795;SDS011;1913;50.660;7.834;2022-09-17T12:59:16;4.70;;;1.93;;
3795;SDS011;1913;50.660;7.834;2022-09-17T13:09:29;2.70;;;1.30;;
3795;SDS011;1913;50.660;7.834;2022-09-17T13:15:32;10.10;;;1.60;;
3795;SDS011;1913;50.660;7.834;2022-09-17T13:18:03;3.00;;;1.30;;
3795;SDS011;1913;50.660;7.834;2022-09-17T13:23:07;3.50;;;1.47;;
3795;SDS011;1913;50.660;7.834;2022-09-17T13:25:36;6.30;;;1.27;;
3795;SDS011;1913;50.660;7.834;2022-09-17T13:28:13;3.10;;;1.07;;
3795;SDS011;1913;50.660;7.834;2022-09-17T13:39:04;4.67;;;1.20;;
3795;SDS011;1913;50.660;7.834;2022-09-17T13:41:37;7.07;;;1.43;;
3795;SDS011;1913;50.660;7.834;2022-09-17T13:44:06;3.17;;;1.10;;
3795;SDS011;1913;50.660;7.834;2022-09-17T13:46:34;5.13;;;1.67;;
3795;SDS011;1913;50.660;7.834;2022-09-17T13:49:03;3.60;;;1.47;;
3795;SDS011;1913;50.660;7.834;2022-09-17T13:54:05;4.00;;;1.20;;
3795;SDS011;1913;50.660;7.834;2022-09-17T13:56:36;4.83;;;1.50;;
3795;SDS011;1913;50.660;7.834;2022-09-17T13:59:28;3.20;;;1.40;;
3795;SDS011;1913;50.660;7.834;2022-09-17T14:01:57;18.90;;;2.20;;
3795;SDS011;1913;50.660;7.834;2022-09-17T14:04:33;1.67;;;1.10;;
3795;SDS011;1913;50.660;7.834;2022-09-17T14:18:49;3.57;;;1.00;;
3795;SDS011;1913;50.660;7.834;2022-09-17T14:20:52;3.83;;;1.30;;
3795;SDS011;1913;50.660;7.834;2022-09-17T14:23:55;1.97;;;1.00;;
3795;SDS011;1913;50.660;7.834;2022-09-17T14:35:45;6.90;;;1.80;;
3795;SDS011;1913;50.660;7.834;2022-09-17T14:38:39;5.70;;;1.80;;
3795;SDS011;1913;50.660;7.834;2022-09-17T14:41:23;3.20;;;1.63;;
3795;SDS011;1913;50.660;7.834;2022-09-17T14:47:02;7.10;;;2.43;;
3795;SDS011;1913;50.660;7.834;2022-09-17T14:49:43;5.13;;;1.53;;
3795;SDS011;1913;50.660;7.834;2022-09-17T14:52:29;5.60;;;1.57;;
3795;SDS011;1913;50.660;7.834;2022-09-17T14:57:59;2.30;;;1.40;;
3795;SDS011;1913;50.660;7.834;2022-09-17T15:00:49;2.70;;;1.00;;
3795;SDS011;1913;50.660;7.834;2022-09-17T15:03:20;2.20;;;1.20;;
3795;SDS011;1913;50.660;7.834;2022-09-17T15:05:47;2.87;;;1.20;;
3795;SDS011;1913;50.660;7.834;2022-09-17T15:08:19;3.43;;;1.17;;
3795;SDS011;1913;50.660;7.834;2022-09-17T15:13:16;3.40;;;1.07;;
3795;SDS011;1913;50.660;7.834;2022-09-17T15:15:51;2.67;;;1.37;;
3795;SDS011;1913;50.660;7.834;2022-09-17T15:18:20;1.40;;;1.00;;
3795;SDS011;1913;50.660;7.834;2022-09-17T15:20:55;2.53;;;1.03;;
3795;SDS011;1913;50.660;7.834;2022-09-17T15:23:25;2.00;;;0.90;;
3795;SDS011;1913;50.660;7.834;2022-09-17T15:25:53;3.50;;;1.37;;
3795;SDS011;1913;50.660;7.834;2022-09-17T15:28:40;3.50;;;1.27;;
3795;SDS011;1913;50.660;7.834;2022-09-17T15:31:14;2.50;;;1.23;;
3795;SDS011;1913;50.660;7.834;2022-09-17T15:33:42;4.10;;;1.60;;
3795;SDS011;1913;50.660;7.834;2022-09-17T15:38:41;8.23;;;1.20;;
3795;SDS011;1913;50.660;7.834;2022-09-17T15:41:17;5.47;;;1.60;;
3795;SDS011;1913;50.660;7.834;2022-09-17T15:43:53;6.90;;;1.20;;
3795;SDS011;1913;50.660;7.834;2022-09-17T15:46:30;6.43;;;1.60;;
3795;SDS011;1913;50.660;7.834;2022-09-17T15:49:02;4.30;;;1.30;;
3795;SDS011;1913;50.660;7.834;2022-09-17T15:51:32;2.80;;;1.50;;
3795;SDS011;1913;50.660;7.834;2022-09-17T15:54:03;5.00;;;1.40;;
3795;SDS011;1913;50.660;7.834;2022-09-17T15:56:30;4.53;;;1.70;;
3795;SDS011;1913;50.660;7.834;2022-09-17T15:58:59;3.10;;;1.30;;
3795;SDS011;1913;50.660;7.834;2022-09-17T16:04:17;4.67;;;1.40;;
3795;SDS011;1913;50.660;7.834;2022-09-17T16:06:48;2.23;;;1.10;;
3795;SDS011;1913;50.660;7.834;2022-09-17T16:12:14;5.90;;;2.90;;
3795;SDS011;1913;50.660;7.834;2022-09-17T16:14:48;1.90;;;1.20;;
3795;SDS011;1913;50.660;7.834;2022-09-17T16:17:20;3.90;;;2.23;;
3795;SDS011;1913;50.660;7.834;2022-09-17T16:19:52;4.40;;;1.63;;
3795;SDS011;1913;50.660;7.834;2022-09-17T16:22:18;2.83;;;1.70;;
3795;SDS011;1913;50.660;7.834;2022-09-17T16:24:47;3.43;;;1.87;;
3795;SDS011;1913;50.660;7.834;2022-09-17T16:27:20;5.53;;;2.13;;
3795;SDS011;1913;50.660;7.834;2022-09-17T16:29:49;3.43;;;1.80;;
3795;SDS011;1913;50.660;7.834;2022-09-17T16:32:17;3.07;;;1.67;;
3795;SDS011;1913;50.660;7.834;2022-09-17T16:34:42;6.20;;;1.70;;
3795;SDS011;1913;50.660;7.834;2022-09-17T16:37:08;4.03;;;1.43;;
3795;SDS011;1913;50.660;7.834;2022-09-17T16:39:35;5.87;;;1.97;;
3795;SDS011;1913;50.660;7.834;2022-09-17T16:42:00;6.93;;;2.10;;
3795;SDS011;1913;50.660;7.834;2022-09-17T16:44:26;3.47;;;1.70;;
3795;SDS011;1913;50.660;7.834;2022-09-17T16:46:51;4.77;;;1.80;;
3795;SDS011;1913;50.660;7.834;2022-09-17T16:49:17;5.80;;;1.60;;
3795;SDS011;1913;50.660;7.834;2022-09-17T16:51:42;4.13;;;1.90;;
3795;SDS011;1913;50.660;7.834;2022-09-17T16:54:08;3.70;;;1.90;;
3795;SDS011;1913;50.660;7.834;2022-09-17T16:56:33;6.83;;;2.23;;
3795;SDS011;1913;50.660;7.834;2022-09-17T16:58:58;4.23;;;2.40;;
3795;SDS011;1913;50.660;7.834;2022-09-17T17:01:24;6.37;;;2.00;;
3795;SDS011;1913;50.660;7.834;2022-09-17T17:03:50;6.37;;;2.00;;
3795;SDS011;1913;50.660;7.834;2022-09-17T17:06:16;6.13;;;2.00;;
3795;SDS011;1913;50.660;7.834;2022-09-17T17:08:42;4.23;;;2.10;;
3795;SDS011;1913;50.660;7.834;2022-09-17T17:11:08;6.43;;;2.47;;
3795;SDS011;1913;50.660;7.834;2022-09-17T17:13:33;6.33;;;2.30;;
3795;SDS011;1913;50.660;7.834;2022-09-17T17:16:03;6.33;;;2.50;;
3795;SDS011;1913;50.660;7.834;2022-09-17T17:18:30;7.10;;;2.57;;
3795;SDS011;1913;50.660;7.834;2022-09-17T17:20:55;3.63;;;2.70;;
3795;SDS011;1913;50.660;7.834;2022-09-17T17:23:28;5.57;;;3.17;;
3795;SDS011;1913;50.660;7.834;2022-09-17T17:25:54;5.10;;;2.80;;
3795;SDS011;1913;50.660;7.834;2022-09-17T17:28:20;5.70;;;3.40;;
3795;SDS011;1913;50.660;7.834;2022-09-17T17:30:46;11.90;;;3.87;;
3795;SDS011;1913;50.660;7.834;2022-09-17T17:33:11;8.33;;;4.20;;
3795;SDS011;1913;50.660;7.834;2022-09-17T17:35:37;5.53;;;3.67;;
3795;SDS011;1913;50.660;7.834;2022-09-17T17:38:03;4.60;;;3.73;;
3795;SDS011;1913;50.660;7.834;2022-09-17T17:40:28;10.80;;;4.00;;
3795;SDS011;1913;50.660;7.834;2022-09-17T17:42:54;10.03;;;3.63;;
3795;SDS011;1913;50.660;7.834;2022-09-17T17:45:19;6.07;;;4.10;;
3795;SDS011;1913;50.660;7.834;2022-09-17T17:47:45;6.57;;;3.73;;
3795;SDS011;1913;50.660;7.834;2022-09-17T17:50:11;6.43;;;4.33;;
3795;SDS011;1913;50.660;7.834;2022-09-17T17:52:36;8.90;;;5.03;;
3795;SDS011;1913;50.660;7.834;2022-09-17T17:55:04;8.97;;;3.70;;
3795;SDS011;1913;50.660;7.834;2022-09-17T17:57:30;12.27;;;3.53;;
3795;SDS011;1913;50.660;7.834;2022-09-17T17:59:55;10.63;;;4.20;;
3795;SDS011;1913;50.660;7.834;2022-09-17T18:02:21;9.47;;;3.30;;
3795;SDS011;1913;50.660;7.834;2022-09-17T18:04:46;7.33;;;3.40;;
3795;SDS011;1913;50.660;7.834;2022-09-17T18:07:12;7.80;;;3.77;;
3795;SDS011;1913;50.660;7.834;2022-09-17T18:09:37;5.10;;;3.10;;
3795;SDS011;1913;50.660;7.834;2022-09-17T18:12:03;5.20;;;2.90;;
3795;SDS011;1913;50.660;7.834;2022-09-17T18:14:29;9.80;;;5.10;;
3795;SDS011;1913;50.660;7.834;2022-09-17T18:16:55;8.07;;;4.17;;
3795;SDS011;1913;50.660;7.834;2022-09-17T18:19:20;5.73;;;4.00;;
3795;SDS011;1913;50.660;7.834;2022-09-17T18:21:45;6.77;;;4.43;;
3795;SDS011;1913;50.660;7.834;2022-09-17T18:24:11;7.90;;;4.60;;
3795;SDS011;1913;50.660;7.834;2022-09-17T18:26:36;16.20;;;7.60;;
3795;SDS011;1913;50.660;7.834;2022-09-17T18:29:02;11.97;;;6.27;;
3795;SDS011;1913;50.660;7.834;2022-09-17T18:31:28;15.83;;;6.93;;
3795;SDS011;1913;50.660;7.834;2022-09-17T18:34:15;14.50;;;9.30;;
3795;SDS011;1913;50.660;7.834;2022-09-17T18:36:41;17.70;;;10.93;;
3795;SDS011;1913;50.660;7.834;2022-09-17T18:39:30;24.47;;;13.57;;
3795;SDS011;1913;50.660;7.834;2022-09-17T18:42:15;13.60;;;8.20;;
3795;SDS011;1913;50.660;7.834;2022-09-17T18:44:41;9.60;;;5.00;;
3795;SDS011;1913;50.660;7.834;2022-09-17T18:47:13;13.20;;;4.97;;
3795;SDS011;1913;50.660;7.834;2022-09-17T18:49:59;19.57;;;9.70;;
3795;SDS011;1913;50.660;7.834;2022-09-17T18:52:44;23.43;;;11.37;;
3795;SDS011;1913;50.660;7.834;2022-09-17T18:55:09;21.40;;;11.50;;
3795;SDS011;1913;50.660;7.834;2022-09-17T18:57:55;35.00;;;16.37;;
3795;SDS011;1913;50.660;7.834;2022-09-17T19:00:40;19.37;;;11.33;;
3795;SDS011;1913;50.660;7.834;2022-09-17T19:03:25;18.10;;;8.20;;
3795;SDS011;1913;50.660;7.834;2022-09-17T19:06:16;18.20;;;9.40;;
3795;SDS011;1913;50.660;7.834;2022-09-17T19:09:02;16.13;;;9.30;;
3795;SDS011;1913;50.660;7.834;2022-09-17T19:11:48;12.43;;;7.43;;
3795;SDS011;1913;50.660;7.834;2022-09-17T19:14:34;16.27;;;7.30;;
3795;SDS011;1913;50.660;7.834;2022-09-17T19:17:19;15.20;;;9.67;;
3795;SDS011;1913;50.660;7.834;2022-09-17T19:20:05;18.47;;;9.47;;
3795;SDS011;1913;50.660;7.834;2022-09-17T19:22:51;12.63;;;7.80;;